sensor_id;sensor_type;location;lat;lon;timestamp;P1;durP1;ratioP1;P2;durP2;ratioP2
58643;SDS011;44411;49.994;8.660;2022-12-20T00:01:51;96.90;;;52.80;;
58643;SDS011;44411;49.994;8.660;2022-12-20T00:04:16;103.07;;;54.03;;
58643;SDS011;44411;49.994;8.660;2022-12-20T00:06:42;99.05;;;50.25;;
58643;SDS011;44411;49.994;8.660;2022-12-20T00:09:08;98.28;;;49.63;;
58643;SDS011;44411;49.994;8.660;2022-12-20T00:11:37;90.55;;;51.22;;
58643;SDS011;44411;49.994;8.660;2022-12-20T00:14:04;94.95;;;51.05;;
58643;SDS011;44411;49.994;8.660;2022-12-20T00:16:29;106.93;;;53.53;;
58643;SDS011;44411;49.994;8.660;2022-12-20T00:18:56;98.90;;;53.95;;
58643;SDS011;44411;49.994;8.660;2022-12-20T00:21:23;102.03;;;54.30;;
58643;SDS011;44411;49.994;8.660;2022-12-20T00:23:48;105.47;;;54.38;;
58643;SDS011;44411;49.994;8.660;2022-12-20T00:26:16;97.38;;;54.05;;
58643;SDS011;44411;49.994;8.660;2022-12-20T00:28:43;99.03;;;53.38;;
58643;SDS011;44411;49.994;8.660;2022-12-20T00:31:10;110.95;;;55.00;;
58643;SDS011;44411;49.994;8.660;2022-12-20T00:33:38;104.85;;;59.28;;
58643;SDS011;44411;49.994;8.660;2022-12-20T00:36:04;102.85;;;53.95;;
58643;SDS011;44411;49.994;8.660;2022-12-20T00:38:31;102.18;;;52.70;;
58643;SDS011;44411;49.994;8.660;2022-12-20T00:41:00;92.72;;;51.92;;
58643;SDS011;44411;49.994;8.660;2022-12-20T00:43:27;97.38;;;51.78;;
58643;SDS011;44411;49.994;8.660;2022-12-20T00:45:53;102.05;;;53.45;;
58643;SDS011;44411;49.994;8.660;2022-12-20T00:48:19;99.70;;;51.58;;
58643;SDS011;44411;49.994;8.660;2022-12-20T00:50:44;93.95;;;49.25;;
58643;SDS011;44411;49.994;8.660;2022-12-20T00:53:09;92.90;;;50.60;;
58643;SDS011;44411;49.994;8.660;2022-12-20T00:55:39;83.97;;;47.28;;
58643;SDS011;44411;49.994;8.660;2022-12-20T00:58:09;82.00;;;48.17;;
58643;SDS011;44411;49.994;8.660;2022-12-20T01:05:51;104.38;;;55.35;;
58643;SDS011;44411;49.994;8.660;2022-12-20T01:08:19;99.07;;;51.22;;
58643;SDS011;44411;49.994;8.660;2022-12-20T01:10:45;98.43;;;52.75;;
58643;SDS011;44411;49.994;8.660;2022-12-20T01:13:11;119.32;;;66.05;;
58643;SDS011;44411;49.994;8.660;2022-12-20T01:15:37;146.32;;;86.60;;
58643;SDS011;44411;49.994;8.660;2022-12-20T01:18:02;123.03;;;73.32;;
58643;SDS011;44411;49.994;8.660;2022-12-20T01:20:28;113.05;;;68.80;;
58643;SDS011;44411;49.994;8.660;2022-12-20T01:22:53;108.78;;;61.67;;
58643;SDS011;44411;49.994;8.660;2022-12-20T01:25:18;104.90;;;54.10;;
58643;SDS011;44411;49.994;8.660;2022-12-20T01:27:43;97.45;;;53.65;;
58643;SDS011;44411;49.994;8.660;2022-12-20T01:30:09;97.15;;;52.00;;
58643;SDS011;44411;49.994;8.660;2022-12-20T01:32:35;93.57;;;50.15;;
58643;SDS011;44411;49.994;8.660;2022-12-20T01:35:00;93.38;;;49.75;;
58643;SDS011;44411;49.994;8.660;2022-12-20T01:37:25;93.15;;;50.03;;
58643;SDS011;44411;49.994;8.660;2022-12-20T01:39:51;89.55;;;48.38;;
58643;SDS011;44411;49.994;8.660;2022-12-20T01:42:16;84.47;;;47.45;;
58643;SDS011;44411;49.994;8.660;2022-12-20T01:47:07;90.82;;;47.58;;
58643;SDS011;44411;49.994;8.660;2022-12-20T01:49:34;85.47;;;45.92;;
58643;SDS011;44411;49.994;8.660;2022-12-20T01:54:35;77.40;;;44.35;;
58643;SDS011;44411;49.994;8.660;2022-12-20T01:57:15;78.05;;;44.70;;
58643;SDS011;44411;49.994;8.660;2022-12-20T01:59:45;82.13;;;44.65;;
58643;SDS011;44411;49.994;8.660;2022-12-20T02:02:12;80.85;;;46.97;;
58643;SDS011;44411;49.994;8.660;2022-12-20T02:04:38;81.35;;;46.08;;
58643;SDS011;44411;49.994;8.660;2022-12-20T02:07:04;78.10;;;45.45;;
58643;SDS011;44411;49.994;8.660;2022-12-20T02:09:31;83.18;;;45.58;;
58643;SDS011;44411;49.994;8.660;2022-12-20T02:15:09;77.13;;;44.13;;
58643;SDS011;44411;49.994;8.660;2022-12-20T02:23:41;87.32;;;47.72;;
58643;SDS011;44411;49.994;8.660;2022-12-20T02:32:15;75.30;;;42.00;;
58643;SDS011;44411;49.994;8.660;2022-12-20T02:34:41;83.68;;;44.58;;
58643;SDS011;44411;49.994;8.660;2022-12-20T02:37:07;82.45;;;43.10;;
58643;SDS011;44411;49.994;8.660;2022-12-20T02:39:33;76.32;;;43.55;;
58643;SDS011;44411;49.994;8.660;2022-12-20T02:42:05;74.93;;;41.55;;
58643;SDS011;44411;49.994;8.660;2022-12-20T02:44:34;81.90;;;45.28;;
58643;SDS011;44411;49.994;8.660;2022-12-20T02:47:23;83.57;;;44.55;;
58643;SDS011;44411;49.994;8.660;2022-12-20T02:50:10;80.10;;;44.55;;
58643;SDS011;44411;49.994;8.660;2022-12-20T02:52:36;85.60;;;45.72;;
58643;SDS011;44411;49.994;8.660;2022-12-20T02:55:03;85.07;;;44.40;;
58643;SDS011;44411;49.994;8.660;2022-12-20T03:00:18;78.82;;;42.45;;
58643;SDS011;44411;49.994;8.660;2022-12-20T03:02:46;71.78;;;43.10;;
58643;SDS011;44411;49.994;8.660;2022-12-20T03:05:31;84.20;;;43.97;;
58643;SDS011;44411;49.994;8.660;2022-12-20T03:08:00;81.93;;;42.08;;
58643;SDS011;44411;49.994;8.660;2022-12-20T03:10:25;67.68;;;40.10;;
58643;SDS011;44411;49.994;8.660;2022-12-20T03:12:51;72.82;;;44.65;;
58643;SDS011;44411;49.994;8.660;2022-12-20T03:15:16;82.07;;;45.63;;
58643;SDS011;44411;49.994;8.660;2022-12-20T03:17:42;76.90;;;44.50;;
58643;SDS011;44411;49.994;8.660;2022-12-20T03:20:07;79.30;;;42.58;;
58643;SDS011;44411;49.994;8.660;2022-12-20T03:22:35;72.25;;;42.35;;
58643;SDS011;44411;49.994;8.660;2022-12-20T03:25:00;70.80;;;41.88;;
58643;SDS011;44411;49.994;8.660;2022-12-20T03:27:26;79.95;;;42.00;;
58643;SDS011;44411;49.994;8.660;2022-12-20T03:29:52;78.00;;;42.65;;
58643;SDS011;44411;49.994;8.660;2022-12-20T03:32:18;69.68;;;42.75;;
58643;SDS011;44411;49.994;8.660;2022-12-20T03:34:43;84.32;;;43.88;;
58643;SDS011;44411;49.994;8.660;2022-12-20T03:37:09;79.68;;;46.95;;
58643;SDS011;44411;49.994;8.660;2022-12-20T03:39:34;75.00;;;43.63;;
58643;SDS011;44411;49.994;8.660;2022-12-20T03:41:59;83.32;;;45.88;;
58643;SDS011;44411;49.994;8.660;2022-12-20T03:44:25;84.35;;;45.63;;
58643;SDS011;44411;49.994;8.660;2022-12-20T03:46:50;78.45;;;43.60;;
58643;SDS011;44411;49.994;8.660;2022-12-20T03:49:16;78.07;;;44.22;;
58643;SDS011;44411;49.994;8.660;2022-12-20T03:51:41;78.53;;;43.55;;
58643;SDS011;44411;49.994;8.660;2022-12-20T03:54:06;73.80;;;40.58;;
58643;SDS011;44411;49.994;8.660;2022-12-20T03:56:32;73.60;;;41.38;;
58643;SDS011;44411;49.994;8.660;2022-12-20T03:58:57;79.68;;;42.00;;
58643;SDS011;44411;49.994;8.660;2022-12-20T04:01:23;80.50;;;44.00;;
58643;SDS011;44411;49.994;8.660;2022-12-20T04:03:50;81.80;;;43.80;;
58643;SDS011;44411;49.994;8.660;2022-12-20T04:06:16;83.47;;;44.22;;
58643;SDS011;44411;49.994;8.660;2022-12-20T04:08:42;87.32;;;45.13;;
58643;SDS011;44411;49.994;8.660;2022-12-20T04:11:07;77.28;;;42.55;;
58643;SDS011;44411;49.994;8.660;2022-12-20T04:13:51;68.70;;;41.17;;
58643;SDS011;44411;49.994;8.660;2022-12-20T04:16:19;73.07;;;41.53;;
58643;SDS011;44411;49.994;8.660;2022-12-20T04:18:49;80.38;;;43.25;;
58643;SDS011;44411;49.994;8.660;2022-12-20T04:21:14;80.55;;;42.35;;
58643;SDS011;44411;49.994;8.660;2022-12-20T04:23:40;81.40;;;42.70;;
58643;SDS011;44411;49.994;8.660;2022-12-20T04:26:07;75.47;;;43.33;;
58643;SDS011;44411;49.994;8.660;2022-12-20T04:28:33;73.22;;;41.45;;
58643;SDS011;44411;49.994;8.660;2022-12-20T04:30:59;74.43;;;43.67;;
58643;SDS011;44411;49.994;8.660;2022-12-20T04:33:25;68.93;;;37.92;;
58643;SDS011;44411;49.994;8.660;2022-12-20T04:35:52;63.40;;;40.58;;
58643;SDS011;44411;49.994;8.660;2022-12-20T04:38:18;71.45;;;41.00;;
58643;SDS011;44411;49.994;8.660;2022-12-20T04:40:44;72.07;;;39.67;;
58643;SDS011;44411;49.994;8.660;2022-12-20T04:43:09;74.03;;;41.13;;
58643;SDS011;44411;49.994;8.660;2022-12-20T04:45:35;71.65;;;41.38;;
58643;SDS011;44411;49.994;8.660;2022-12-20T04:48:00;77.07;;;40.92;;
58643;SDS011;44411;49.994;8.660;2022-12-20T04:50:25;77.18;;;41.83;;
58643;SDS011;44411;49.994;8.660;2022-12-20T04:52:51;78.15;;;41.28;;
58643;SDS011;44411;49.994;8.660;2022-12-20T04:55:36;78.47;;;43.45;;
58643;SDS011;44411;49.994;8.660;2022-12-20T04:58:02;83.40;;;42.72;;
58643;SDS011;44411;49.994;8.660;2022-12-20T05:00:28;71.75;;;43.38;;
58643;SDS011;44411;49.994;8.660;2022-12-20T05:02:53;79.18;;;42.53;;
58643;SDS011;44411;49.994;8.660;2022-12-20T05:05:18;72.70;;;42.35;;
58643;SDS011;44411;49.994;8.660;2022-12-20T05:07:44;74.40;;;41.20;;
58643;SDS011;44411;49.994;8.660;2022-12-20T05:10:09;126.70;;;67.70;;
58643;SDS011;44411;49.994;8.660;2022-12-20T05:12:35;146.02;;;84.03;;
58643;SDS011;44411;49.994;8.660;2022-12-20T05:15:00;122.32;;;86.35;;
58643;SDS011;44411;49.994;8.660;2022-12-20T05:17:26;98.05;;;59.38;;
58643;SDS011;44411;49.994;8.660;2022-12-20T05:19:51;84.00;;;50.85;;
58643;SDS011;44411;49.994;8.660;2022-12-20T05:22:16;68.47;;;39.60;;
58643;SDS011;44411;49.994;8.660;2022-12-20T05:25:00;64.05;;;38.83;;
58643;SDS011;44411;49.994;8.660;2022-12-20T05:27:44;72.45;;;39.75;;
58643;SDS011;44411;49.994;8.660;2022-12-20T05:30:10;63.40;;;36.92;;
58643;SDS011;44411;49.994;8.660;2022-12-20T05:32:35;66.50;;;39.25;;
58643;SDS011;44411;49.994;8.660;2022-12-20T05:35:01;68.65;;;39.00;;
58643;SDS011;44411;49.994;8.660;2022-12-20T05:37:26;70.50;;;42.45;;
58643;SDS011;44411;49.994;8.660;2022-12-20T05:39:51;67.00;;;40.88;;
58643;SDS011;44411;49.994;8.660;2022-12-20T05:42:17;78.50;;;43.58;;
58643;SDS011;44411;49.994;8.660;2022-12-20T05:44:42;80.40;;;41.65;;
58643;SDS011;44411;49.994;8.660;2022-12-20T05:47:07;68.22;;;39.30;;
58643;SDS011;44411;49.994;8.660;2022-12-20T05:49:32;68.90;;;38.97;;
58643;SDS011;44411;49.994;8.660;2022-12-20T05:51:58;67.65;;;40.60;;
58643;SDS011;44411;49.994;8.660;2022-12-20T05:54:24;67.63;;;38.45;;
58643;SDS011;44411;49.994;8.660;2022-12-20T05:56:49;75.25;;;42.22;;
58643;SDS011;44411;49.994;8.660;2022-12-20T05:59:15;77.30;;;43.47;;
58643;SDS011;44411;49.994;8.660;2022-12-20T06:01:41;84.00;;;45.90;;
58643;SDS011;44411;49.994;8.660;2022-12-20T06:04:07;80.07;;;46.00;;
58643;SDS011;44411;49.994;8.660;2022-12-20T06:06:33;84.22;;;45.55;;
58643;SDS011;44411;49.994;8.660;2022-12-20T06:08:58;79.32;;;43.33;;
58643;SDS011;44411;49.994;8.660;2022-12-20T06:11:23;75.97;;;44.00;;
58643;SDS011;44411;49.994;8.660;2022-12-20T06:13:49;72.95;;;43.08;;
58643;SDS011;44411;49.994;8.660;2022-12-20T06:16:14;74.10;;;41.70;;
58643;SDS011;44411;49.994;8.660;2022-12-20T06:18:39;67.75;;;39.55;;
58643;SDS011;44411;49.994;8.660;2022-12-20T06:21:10;63.90;;;39.83;;
58643;SDS011;44411;49.994;8.660;2022-12-20T06:23:36;72.00;;;40.25;;
58643;SDS011;44411;49.994;8.660;2022-12-20T06:26:01;63.20;;;40.80;;
58643;SDS011;44411;49.994;8.660;2022-12-20T06:28:28;70.88;;;40.03;;
58643;SDS011;44411;49.994;8.660;2022-12-20T06:30:54;68.85;;;42.47;;
58643;SDS011;44411;49.994;8.660;2022-12-20T06:33:23;67.80;;;39.97;;
58643;SDS011;44411;49.994;8.660;2022-12-20T06:35:49;65.65;;;38.70;;
58643;SDS011;44411;49.994;8.660;2022-12-20T06:38:15;66.68;;;40.40;;
58643;SDS011;44411;49.994;8.660;2022-12-20T06:40:40;64.55;;;39.50;;
58643;SDS011;44411;49.994;8.660;2022-12-20T06:43:05;64.60;;;38.72;;
58643;SDS011;44411;49.994;8.660;2022-12-20T06:45:31;66.03;;;36.67;;
58643;SDS011;44411;49.994;8.660;2022-12-20T06:47:56;54.58;;;33.42;;
58643;SDS011;44411;49.994;8.660;2022-12-20T06:50:22;62.08;;;36.17;;
58643;SDS011;44411;49.994;8.660;2022-12-20T06:52:48;60.50;;;34.30;;
58643;SDS011;44411;49.994;8.660;2022-12-20T06:55:13;58.08;;;33.97;;
58643;SDS011;44411;49.994;8.660;2022-12-20T06:57:39;54.88;;;34.05;;
58643;SDS011;44411;49.994;8.660;2022-12-20T07:00:04;54.67;;;34.35;;
58643;SDS011;44411;49.994;8.660;2022-12-20T07:02:32;68.55;;;37.45;;
58643;SDS011;44411;49.994;8.660;2022-12-20T07:04:57;65.78;;;37.80;;
58643;SDS011;44411;49.994;8.660;2022-12-20T07:07:23;59.78;;;35.20;;
58643;SDS011;44411;49.994;8.660;2022-12-20T07:09:48;65.75;;;37.20;;
58643;SDS011;44411;49.994;8.660;2022-12-20T07:12:13;65.82;;;36.63;;
58643;SDS011;44411;49.994;8.660;2022-12-20T07:14:38;65.93;;;35.72;;
58643;SDS011;44411;49.994;8.660;2022-12-20T07:17:04;62.42;;;36.50;;
58643;SDS011;44411;49.994;8.660;2022-12-20T07:19:31;63.35;;;38.20;;
58643;SDS011;44411;49.994;8.660;2022-12-20T07:21:56;65.35;;;36.80;;
58643;SDS011;44411;49.994;8.660;2022-12-20T07:24:22;56.90;;;34.47;;
58643;SDS011;44411;49.994;8.660;2022-12-20T07:26:47;62.05;;;36.13;;
58643;SDS011;44411;49.994;8.660;2022-12-20T07:29:12;61.28;;;37.25;;
58643;SDS011;44411;49.994;8.660;2022-12-20T07:31:38;64.10;;;37.78;;
58643;SDS011;44411;49.994;8.660;2022-12-20T07:34:03;70.70;;;37.05;;
58643;SDS011;44411;49.994;8.660;2022-12-20T07:36:29;61.03;;;35.65;;
58643;SDS011;44411;49.994;8.660;2022-12-20T07:38:54;59.38;;;34.78;;
58643;SDS011;44411;49.994;8.660;2022-12-20T07:41:20;68.70;;;37.65;;
58643;SDS011;44411;49.994;8.660;2022-12-20T07:43:45;65.40;;;37.65;;
58643;SDS011;44411;49.994;8.660;2022-12-20T07:46:14;66.43;;;36.45;;
58643;SDS011;44411;49.994;8.660;2022-12-20T07:48:40;62.08;;;36.47;;
58643;SDS011;44411;49.994;8.660;2022-12-20T07:51:24;68.00;;;40.13;;
58643;SDS011;44411;49.994;8.660;2022-12-20T07:54:29;68.60;;;38.90;;
58643;SDS011;44411;49.994;8.660;2022-12-20T07:56:53;67.47;;;38.28;;
58643;SDS011;44411;49.994;8.660;2022-12-20T08:01:51;69.95;;;39.40;;
58643;SDS011;44411;49.994;8.660;2022-12-20T08:04:18;62.65;;;35.78;;
58643;SDS011;44411;49.994;8.660;2022-12-20T08:06:46;57.03;;;34.83;;
58643;SDS011;44411;49.994;8.660;2022-12-20T08:09:12;57.22;;;35.38;;
58643;SDS011;44411;49.994;8.660;2022-12-20T08:11:39;60.20;;;35.42;;
58643;SDS011;44411;49.994;8.660;2022-12-20T08:14:08;61.42;;;37.00;;
58643;SDS011;44411;49.994;8.660;2022-12-20T08:16:34;68.75;;;37.08;;
58643;SDS011;44411;49.994;8.660;2022-12-20T08:18:59;72.05;;;39.45;;
58643;SDS011;44411;49.994;8.660;2022-12-20T08:21:25;70.97;;;39.78;;
58643;SDS011;44411;49.994;8.660;2022-12-20T08:23:50;64.80;;;37.20;;
58643;SDS011;44411;49.994;8.660;2022-12-20T08:26:16;70.65;;;39.53;;
58643;SDS011;44411;49.994;8.660;2022-12-20T08:28:42;75.13;;;40.67;;
58643;SDS011;44411;49.994;8.660;2022-12-20T08:31:08;66.60;;;40.40;;
58643;SDS011;44411;49.994;8.660;2022-12-20T08:33:35;70.28;;;41.90;;
58643;SDS011;44411;49.994;8.660;2022-12-20T08:36:03;76.15;;;43.15;;
58643;SDS011;44411;49.994;8.660;2022-12-20T08:38:30;68.68;;;40.08;;
58643;SDS011;44411;49.994;8.660;2022-12-20T08:41:06;63.55;;;40.50;;
58643;SDS011;44411;49.994;8.660;2022-12-20T08:43:36;76.93;;;43.58;;
58643;SDS011;44411;49.994;8.660;2022-12-20T08:46:02;69.20;;;42.13;;
58643;SDS011;44411;49.994;8.660;2022-12-20T08:48:29;66.75;;;40.28;;
58643;SDS011;44411;49.994;8.660;2022-12-20T08:51:05;71.53;;;44.83;;
58643;SDS011;44411;49.994;8.660;2022-12-20T08:53:32;78.78;;;42.53;;
58643;SDS011;44411;49.994;8.660;2022-12-20T08:56:02;62.35;;;40.05;;
58643;SDS011;44411;49.994;8.660;2022-12-20T08:58:36;58.33;;;34.05;;
58643;SDS011;44411;49.994;8.660;2022-12-20T09:01:03;56.15;;;34.88;;
58643;SDS011;44411;49.994;8.660;2022-12-20T09:03:33;62.58;;;34.67;;
58643;SDS011;44411;49.994;8.660;2022-12-20T09:06:00;55.70;;;34.78;;
58643;SDS011;44411;49.994;8.660;2022-12-20T09:08:25;60.08;;;36.30;;
58643;SDS011;44411;49.994;8.660;2022-12-20T09:10:51;62.85;;;36.83;;
58643;SDS011;44411;49.994;8.660;2022-12-20T09:13:17;61.53;;;38.58;;
58643;SDS011;44411;49.994;8.660;2022-12-20T09:15:43;64.25;;;37.88;;
58643;SDS011;44411;49.994;8.660;2022-12-20T09:18:09;53.90;;;35.30;;
58643;SDS011;44411;49.994;8.660;2022-12-20T09:20:35;63.47;;;37.33;;
58643;SDS011;44411;49.994;8.660;2022-12-20T09:23:05;57.92;;;36.63;;
58643;SDS011;44411;49.994;8.660;2022-12-20T09:25:31;57.75;;;34.90;;
58643;SDS011;44411;49.994;8.660;2022-12-20T09:27:57;62.35;;;36.92;;
58643;SDS011;44411;49.994;8.660;2022-12-20T09:30:22;56.63;;;36.13;;
58643;SDS011;44411;49.994;8.660;2022-12-20T09:32:48;57.13;;;33.88;;
58643;SDS011;44411;49.994;8.660;2022-12-20T09:35:13;50.05;;;34.55;;
58643;SDS011;44411;49.994;8.660;2022-12-20T09:37:39;59.33;;;35.90;;
58643;SDS011;44411;49.994;8.660;2022-12-20T09:40:05;58.85;;;35.35;;
58643;SDS011;44411;49.994;8.660;2022-12-20T09:42:31;61.80;;;35.47;;
58643;SDS011;44411;49.994;8.660;2022-12-20T09:45:02;70.95;;;38.00;;
58643;SDS011;44411;49.994;8.660;2022-12-20T09:47:32;59.60;;;37.78;;
58643;SDS011;44411;49.994;8.660;2022-12-20T09:49:59;60.47;;;37.78;;
58643;SDS011;44411;49.994;8.660;2022-12-20T09:55:27;53.40;;;33.33;;
58643;SDS011;44411;49.994;8.660;2022-12-20T09:58:05;53.90;;;35.67;;
58643;SDS011;44411;49.994;8.660;2022-12-20T10:00:47;57.75;;;36.38;;
58643;SDS011;44411;49.994;8.660;2022-12-20T10:03:18;59.90;;;36.20;;
58643;SDS011;44411;49.994;8.660;2022-12-20T10:10:54;49.92;;;35.28;;
58643;SDS011;44411;49.994;8.660;2022-12-20T10:24:43;60.00;;;39.45;;
58643;SDS011;44411;49.994;8.660;2022-12-20T10:27:18;50.70;;;35.85;;
58643;SDS011;44411;49.994;8.660;2022-12-20T10:29:45;57.35;;;37.58;;
58643;SDS011;44411;49.994;8.660;2022-12-20T10:32:15;57.35;;;36.03;;
58643;SDS011;44411;49.994;8.660;2022-12-20T10:34:49;49.20;;;34.65;;
58643;SDS011;44411;49.994;8.660;2022-12-20T10:37:19;52.67;;;35.25;;
58643;SDS011;44411;49.994;8.660;2022-12-20T10:39:49;50.38;;;34.10;;
58643;SDS011;44411;49.994;8.660;2022-12-20T10:45:24;51.15;;;31.73;;
58643;SDS011;44411;49.994;8.660;2022-12-20T10:47:57;46.55;;;30.90;;
58643;SDS011;44411;49.994;8.660;2022-12-20T10:50:24;51.25;;;33.78;;
58643;SDS011;44411;49.994;8.660;2022-12-20T10:55:35;51.15;;;32.10;;
58643;SDS011;44411;49.994;8.660;2022-12-20T10:58:03;51.28;;;32.40;;
58643;SDS011;44411;49.994;8.660;2022-12-20T11:00:35;48.63;;;32.58;;
58643;SDS011;44411;49.994;8.660;2022-12-20T11:03:02;47.47;;;32.85;;
58643;SDS011;44411;49.994;8.660;2022-12-20T11:05:36;49.30;;;31.40;;
58643;SDS011;44411;49.994;8.660;2022-12-20T11:08:21;52.00;;;32.50;;
58643;SDS011;44411;49.994;8.660;2022-12-20T11:10:49;50.22;;;33.00;;
58643;SDS011;44411;49.994;8.660;2022-12-20T11:13:35;45.60;;;31.63;;
58643;SDS011;44411;49.994;8.660;2022-12-20T11:16:01;50.08;;;34.17;;
58643;SDS011;44411;49.994;8.660;2022-12-20T11:21:30;46.08;;;31.80;;
58643;SDS011;44411;49.994;8.660;2022-12-20T11:24:03;52.63;;;34.25;;
58643;SDS011;44411;49.994;8.660;2022-12-20T11:26:59;50.65;;;35.80;;
58643;SDS011;44411;49.994;8.660;2022-12-20T11:30:12;57.85;;;39.05;;
58643;SDS011;44411;49.994;8.660;2022-12-20T11:41:13;60.20;;;41.35;;
58643;SDS011;44411;49.994;8.660;2022-12-20T11:52:12;55.28;;;39.30;;
58643;SDS011;44411;49.994;8.660;2022-12-20T11:55:15;45.03;;;34.15;;
58643;SDS011;44411;49.994;8.660;2022-12-20T12:00:23;48.10;;;34.72;;
58643;SDS011;44411;49.994;8.660;2022-12-20T12:02:55;48.10;;;36.10;;
58643;SDS011;44411;49.994;8.660;2022-12-20T12:05:39;48.95;;;35.85;;
58643;SDS011;44411;49.994;8.660;2022-12-20T12:08:11;49.15;;;35.90;;
58643;SDS011;44411;49.994;8.660;2022-12-20T12:10:44;47.78;;;36.00;;
58643;SDS011;44411;49.994;8.660;2022-12-20T12:13:31;47.42;;;34.63;;
58643;SDS011;44411;49.994;8.660;2022-12-20T12:18:42;49.33;;;36.55;;
58643;SDS011;44411;49.994;8.660;2022-12-20T12:29:14;42.83;;;32.58;;
58643;SDS011;44411;49.994;8.660;2022-12-20T12:31:45;42.58;;;32.78;;
58643;SDS011;44411;49.994;8.660;2022-12-20T12:40:28;45.83;;;32.63;;
58643;SDS011;44411;49.994;8.660;2022-12-20T12:48:18;41.88;;;30.90;;
58643;SDS011;44411;49.994;8.660;2022-12-20T12:50:49;37.75;;;29.10;;
58643;SDS011;44411;49.994;8.660;2022-12-20T13:01:46;38.58;;;31.23;;
58643;SDS011;44411;49.994;8.660;2022-12-20T13:11:49;40.15;;;30.40;;
58643;SDS011;44411;49.994;8.660;2022-12-20T13:16:42;40.80;;;29.52;;
58643;SDS011;44411;49.994;8.660;2022-12-20T13:19:15;40.08;;;30.85;;
58643;SDS011;44411;49.994;8.660;2022-12-20T13:21:43;45.45;;;30.88;;
58643;SDS011;44411;49.994;8.660;2022-12-20T13:29:33;41.95;;;30.20;;
58643;SDS011;44411;49.994;8.660;2022-12-20T13:31:59;39.83;;;29.95;;
58643;SDS011;44411;49.994;8.660;2022-12-20T13:34:35;38.70;;;28.67;;
58643;SDS011;44411;49.994;8.660;2022-12-20T13:43:04;40.88;;;30.92;;
58643;SDS011;44411;49.994;8.660;2022-12-20T13:45:34;43.33;;;31.63;;
58643;SDS011;44411;49.994;8.660;2022-12-20T13:48:03;43.38;;;31.25;;
58643;SDS011;44411;49.994;8.660;2022-12-20T13:50:38;38.60;;;29.60;;
58643;SDS011;44411;49.994;8.660;2022-12-20T13:53:05;44.70;;;31.73;;
58643;SDS011;44411;49.994;8.660;2022-12-20T13:55:41;40.75;;;30.83;;
58643;SDS011;44411;49.994;8.660;2022-12-20T13:58:13;40.45;;;30.45;;
58643;SDS011;44411;49.994;8.660;2022-12-20T14:00:42;41.35;;;30.48;;
58643;SDS011;44411;49.994;8.660;2022-12-20T14:03:29;42.17;;;30.95;;
58643;SDS011;44411;49.994;8.660;2022-12-20T14:06:02;41.65;;;30.98;;
58643;SDS011;44411;49.994;8.660;2022-12-20T14:08:33;40.63;;;31.23;;
58643;SDS011;44411;49.994;8.660;2022-12-20T14:11:15;41.72;;;31.17;;
58643;SDS011;44411;49.994;8.660;2022-12-20T14:13:59;41.17;;;30.88;;
58643;SDS011;44411;49.994;8.660;2022-12-20T14:16:28;44.70;;;31.70;;
58643;SDS011;44411;49.994;8.660;2022-12-20T14:21:21;40.95;;;31.08;;
58643;SDS011;44411;49.994;8.660;2022-12-20T14:23:47;40.40;;;31.95;;
58643;SDS011;44411;49.994;8.660;2022-12-20T14:26:15;42.60;;;31.83;;
58643;SDS011;44411;49.994;8.660;2022-12-20T14:28:49;40.38;;;31.00;;
58643;SDS011;44411;49.994;8.660;2022-12-20T14:34:11;44.30;;;32.25;;
58643;SDS011;44411;49.994;8.660;2022-12-20T14:36:46;42.55;;;31.08;;
58643;SDS011;44411;49.994;8.660;2022-12-20T14:39:29;42.20;;;30.55;;
58643;SDS011;44411;49.994;8.660;2022-12-20T14:41:58;40.92;;;30.55;;
58643;SDS011;44411;49.994;8.660;2022-12-20T14:44:36;41.22;;;30.92;;
58643;SDS011;44411;49.994;8.660;2022-12-20T14:49:59;42.90;;;30.95;;
58643;SDS011;44411;49.994;8.660;2022-12-20T14:55:07;40.92;;;30.52;;
58643;SDS011;44411;49.994;8.660;2022-12-20T14:57:47;46.83;;;31.92;;
58643;SDS011;44411;49.994;8.660;2022-12-20T15:00:30;41.15;;;29.52;;
58643;SDS011;44411;49.994;8.660;2022-12-20T15:02:59;45.47;;;32.10;;
58643;SDS011;44411;49.994;8.660;2022-12-20T15:08:12;54.55;;;39.53;;
58643;SDS011;44411;49.994;8.660;2022-12-20T15:10:57;50.00;;;36.40;;
58643;SDS011;44411;49.994;8.660;2022-12-20T15:13:32;53.00;;;36.90;;
58643;SDS011;44411;49.994;8.660;2022-12-20T15:16:00;43.10;;;32.45;;
58643;SDS011;44411;49.994;8.660;2022-12-20T15:18:28;48.03;;;32.15;;
58643;SDS011;44411;49.994;8.660;2022-12-20T15:21:16;43.53;;;30.52;;
58643;SDS011;44411;49.994;8.660;2022-12-20T15:23:46;42.85;;;31.20;;
58643;SDS011;44411;49.994;8.660;2022-12-20T15:26:15;45.67;;;32.60;;
58643;SDS011;44411;49.994;8.660;2022-12-20T15:28:42;45.65;;;32.22;;
58643;SDS011;44411;49.994;8.660;2022-12-20T15:31:11;47.85;;;33.03;;
58643;SDS011;44411;49.994;8.660;2022-12-20T15:33:39;50.03;;;34.70;;
58643;SDS011;44411;49.994;8.660;2022-12-20T15:36:06;52.85;;;35.80;;
58643;SDS011;44411;49.994;8.660;2022-12-20T15:38:37;48.38;;;33.83;;
58643;SDS011;44411;49.994;8.660;2022-12-20T15:41:03;49.92;;;34.42;;
58643;SDS011;44411;49.994;8.660;2022-12-20T15:43:32;46.45;;;32.45;;
58643;SDS011;44411;49.994;8.660;2022-12-20T15:46:01;44.70;;;32.97;;
58643;SDS011;44411;49.994;8.660;2022-12-20T15:48:30;48.55;;;32.95;;
58643;SDS011;44411;49.994;8.660;2022-12-20T15:50:58;46.30;;;32.67;;
58643;SDS011;44411;49.994;8.660;2022-12-20T15:53:26;44.80;;;32.80;;
58643;SDS011;44411;49.994;8.660;2022-12-20T15:55:55;43.30;;;32.13;;
58643;SDS011;44411;49.994;8.660;2022-12-20T15:58:21;46.13;;;33.55;;
58643;SDS011;44411;49.994;8.660;2022-12-20T16:00:48;48.72;;;34.78;;
58643;SDS011;44411;49.994;8.660;2022-12-20T16:03:15;45.60;;;33.20;;
58643;SDS011;44411;49.994;8.660;2022-12-20T16:05:43;47.53;;;33.40;;
58643;SDS011;44411;49.994;8.660;2022-12-20T16:08:08;45.95;;;33.70;;
58643;SDS011;44411;49.994;8.660;2022-12-20T16:10:34;50.25;;;34.10;;
58643;SDS011;44411;49.994;8.660;2022-12-20T16:12:59;47.50;;;33.88;;
58643;SDS011;44411;49.994;8.660;2022-12-20T16:15:24;46.65;;;33.60;;
58643;SDS011;44411;49.994;8.660;2022-12-20T16:17:50;48.38;;;34.53;;
58643;SDS011;44411;49.994;8.660;2022-12-20T16:20:16;54.20;;;35.55;;
58643;SDS011;44411;49.994;8.660;2022-12-20T16:22:41;51.13;;;37.58;;
58643;SDS011;44411;49.994;8.660;2022-12-20T16:25:12;52.95;;;35.55;;
58643;SDS011;44411;49.994;8.660;2022-12-20T16:27:51;50.22;;;35.63;;
58643;SDS011;44411;49.994;8.660;2022-12-20T16:30:16;49.92;;;37.55;;
58643;SDS011;44411;49.994;8.660;2022-12-20T16:32:42;53.33;;;37.83;;
58643;SDS011;44411;49.994;8.660;2022-12-20T16:35:20;55.00;;;38.08;;
58643;SDS011;44411;49.994;8.660;2022-12-20T16:37:47;53.58;;;38.35;;
58643;SDS011;44411;49.994;8.660;2022-12-20T16:40:16;51.83;;;36.03;;
58643;SDS011;44411;49.994;8.660;2022-12-20T16:42:41;50.45;;;34.75;;
58643;SDS011;44411;49.994;8.660;2022-12-20T16:45:26;52.00;;;35.17;;
58643;SDS011;44411;49.994;8.660;2022-12-20T16:47:53;50.85;;;33.80;;
58643;SDS011;44411;49.994;8.660;2022-12-20T16:50:20;49.88;;;34.80;;
58643;SDS011;44411;49.994;8.660;2022-12-20T16:52:46;51.28;;;35.15;;
58643;SDS011;44411;49.994;8.660;2022-12-20T16:55:17;52.13;;;36.65;;